Time;durP1;ratioP1;P1;durP2;ratioP2;P2;SDS_P1;SDS_P2;PMS_P1;PMS_P2;Temp;Humidity;BMP_temperature;BMP_pressure;BME280_temperature;BME280_humidity;BME280_pressure;Samples;Min_cycle;Max_cycle;Signal;HPM_P1;HPM_P2
2022/03/14 00:01:49;;;;;;;;;;;1.40;83.90;;;;;;5105444;28;20014;-79
2022/03/14 00:04:15;;;;;;;;;;;-0.50;83.20;;;;;;5105536;28;19922;-79
2022/03/14 00:06:40;;;;;;;;;;;0.60;84.20;;;;;;5106958;28;19908;-80
2022/03/14 00:09:09;;;;;;;;;;;-0.50;83.50;;;;;;5107579;28;20317;-79
2022/03/14 00:11:38;;;;;;;;;;;-0.50;83.60;;;;;;5107687;28;19916;-79
2022/03/14 00:14:06;;;;;;;;;;;-0.50;83.70;;;;;;5107204;28;19908;-79
2022/03/14 00:16:33;;;;;;;;;;;0.30;84.60;;;;;;5088297;28;19931;-80
2022/03/14 00:18:58;;;;;;;;;;;-0.70;84.20;;;;;;5085941;28;19915;-79
2022/03/14 00:21:25;;;;;;;;;;;-0.70;84.30;;;;;;5101007;28;19919;-79
2022/03/14 00:23:55;;;;;;;;;;;-0.70;84.60;;;;;;5082463;28;19938;-79
2022/03/14 00:26:26;;;;;;;;;;;-0.70;84.70;;;;;;5101418;28;19908;-79
2022/03/14 00:28:52;;;;;;;;;;;-0.70;84.90;;;;;;5082725;28;19908;-79
2022/03/14 00:31:18;;;;;;;;;;;-0.70;84.60;;;;;;5101270;28;20025;-80
2022/03/14 00:33:43;;;;;;;;;;;-0.80;85.20;;;;;;5082704;28;19908;-79
2022/03/14 00:36:09;;;;;;;;;;;-0.70;84.10;;;;;;5101058;28;20417;-79
2022/03/14 00:38:36;;;;;;;;;;;0.00;84.80;;;;;;5082335;28;20133;-79
2022/03/14 00:41:03;;;;;;;;;;;-0.80;84.10;;;;;;5082504;28;20376;-79
2022/03/14 00:43:28;;;;;;;;;;;0.00;84.60;;;;;;5102671;28;20401;-79
2022/03/14 00:45:54;;;;;;;;;;;-0.70;84.40;;;;;;5104446;28;19912;-79
2022/03/14 00:48:20;;;;;;;;;;;0.30;84.80;;;;;;5104329;28;20016;-79
2022/03/14 00:50:46;;;;;;;;;;;-0.70;84.30;;;;;;5081576;28;19908;-79
2022/03/14 00:53:12;;;;;;;;;;;0.00;84.90;;;;;;5100198;28;19930;-79
2022/03/14 00:55:37;;;;;;;;;;;-0.80;84.30;;;;;;5100139;28;20321;-79
2022/03/14 00:58:03;;;;;;;;;;;-0.90;84.50;;;;;;5081271;28;20007;-80
2022/03/14 01:00:29;;;;;;;;;;;-0.30;85.40;;;;;;5099956;28;20278;-79
2022/03/14 01:02:55;;;;;;;;;;;-1.00;85.40;;;;;;5102327;28;19912;-79
2022/03/14 01:05:20;;;;;;;;;;;-1.00;85.20;;;;;;5103597;28;20443;-79
2022/03/14 01:07:46;;;;;;;;;;;-1.00;85.60;;;;;;5085019;28;19908;-79
2022/03/14 01:10:13;;;;;;;;;;;-1.10;85.70;;;;;;5085267;28;19908;-79
2022/03/14 01:12:39;;;;;;;;;;;-1.00;85.40;;;;;;5084402;28;20390;-80
2022/03/14 01:15:05;;;;;;;;;;;-1.10;85.50;;;;;;5104371;28;19919;-79
2022/03/14 01:17:30;;;;;;;;;;;-1.10;85.40;;;;;;5106308;28;19912;-79
2022/03/14 01:19:56;;;;;;;;;;;-1.10;85.90;;;;;;5110431;28;19923;-79
2022/03/14 01:22:22;;;;;;;;;;;-1.10;85.60;;;;;;5115354;28;19916;-79
2022/03/14 01:24:47;;;;;;;;;;;-0.10;86.30;;;;;;5115438;28;20136;-79
2022/03/14 01:27:13;;;;;;;;;;;-1.10;86.00;;;;;;5116588;28;19915;-79
2022/03/14 01:29:38;;;;;;;;;;;-1.10;85.80;;;;;;5110452;28;19914;-79
2022/03/14 01:32:05;;;;;;;;;;;-1.20;85.90;;;;;;5104095;28;19961;-78
2022/03/14 01:34:30;;;;;;;;;;;-1.20;86.10;;;;;;5103906;28;20018;-79
2022/03/14 01:36:56;;;;;;;;;;;-1.10;86.50;;;;;;5103869;28;20264;-79
2022/03/14 01:39:22;;;;;;;;;;;-0.30;86.90;;;;;;5103556;28;19993;-79
2022/03/14 01:41:49;;;;;;;;;;;-1.30;86.60;;;;;;5104043;28;20391;-79
2022/03/14 01:44:14;;;;;;;;;;;-1.40;86.50;;;;;;5103826;28;20018;-79
2022/03/14 01:46:40;;;;;;;;;;;-1.40;86.90;;;;;;5085575;28;20007;-79
2022/03/14 01:49:06;;;;;;;;;;;-0.90;87.00;;;;;;5085222;28;19908;-78
2022/03/14 01:51:34;;;;;;;;;;;-1.40;86.40;;;;;;5104463;28;20123;-79
2022/03/14 01:54:00;;;;;;;;;;;-1.30;86.90;;;;;;5108123;28;19957;-79
2022/03/14 01:56:25;;;;;;;;;;;-1.30;86.60;;;;;;5110469;28;19908;-79
2022/03/14 01:58:52;;;;;;;;;;;-1.40;87.70;;;;;;5103055;28;19915;-79
2022/03/14 02:01:19;;;;;;;;;;;-1.40;86.50;;;;;;5085076;28;19907;-79
2022/03/14 02:03:44;;;;;;;;;;;-1.40;86.20;;;;;;5102628;28;19918;-78
2022/03/14 02:06:10;;;;;;;;;;;-1.40;86.70;;;;;;5102571;28;19995;-79
2022/03/14 02:08:36;;;;;;;;;;;-1.50;87.40;;;;;;5102327;28;19914;-79
2022/03/14 02:11:01;;;;;;;;;;;-1.60;86.90;;;;;;5102335;28;19930;-79
2022/03/14 02:13:27;;;;;;;;;;;-1.50;87.10;;;;;;5101059;28;19907;-79
2022/03/14 02:15:53;;;;;;;;;;;-1.60;87.00;;;;;;5101959;28;19943;-79
2022/03/14 02:18:18;;;;;;;;;;;-1.50;87.60;;;;;;5101812;28;19916;-80
2022/03/14 02:20:44;;;;;;;;;;;-1.60;87.20;;;;;;5101715;28;20386;-79
2022/03/14 02:23:10;;;;;;;;;;;-1.50;87.80;;;;;;5102373;28;19919;-79
2022/03/14 02:25:35;;;;;;;;;;;-1.70;87.90;;;;;;5101936;28;19908;-79
2022/03/14 02:28:02;;;;;;;;;;;-1.70;88.00;;;;;;5102287;28;19914;-79
2022/03/14 02:30:27;;;;;;;;;;;-1.70;88.10;;;;;;5102103;28;20037;-79
2022/03/14 02:32:53;;;;;;;;;;;-1.60;87.90;;;;;;5102088;28;20410;-79
2022/03/14 02:35:19;;;;;;;;;;;-1.70;87.80;;;;;;5083357;28;19908;-79
2022/03/14 02:37:45;;;;;;;;;;;-1.80;88.10;;;;;;5083595;28;20275;-79
2022/03/14 02:40:11;;;;;;;;;;;-1.80;88.40;;;;;;5101396;28;20089;-79
2022/03/14 02:42:37;;;;;;;;;;;-1.80;88.70;;;;;;5101665;28;19914;-79
2022/03/14 02:45:04;;;;;;;;;;;-1.10;89.00;;;;;;5102139;28;20010;-79
2022/03/14 02:47:30;;;;;;;;;;;-1.90;89.20;;;;;;5083276;28;19920;-79
2022/03/14 02:49:55;;;;;;;;;;;-0.40;89.80;;;;;;5101743;28;19908;-79
2022/03/14 02:52:21;;;;;;;;;;;-2.00;89.40;;;;;;5101678;28;19973;-79
2022/03/14 02:54:47;;;;;;;;;;;-2.00;89.00;;;;;;5083388;28;19908;-79
2022/03/14 02:57:12;;;;;;;;;;;-2.00;89.90;;;;;;5101642;28;20333;-79
2022/03/14 02:59:38;;;;;;;;;;;-1.00;90.20;;;;;;5101903;28;19912;-79
2022/03/14 03:02:05;;;;;;;;;;;0.00;90.20;;;;;;5101352;28;20297;-79
2022/03/14 03:04:32;;;;;;;;;;;-2.00;90.10;;;;;;5101815;28;20002;-79
2022/03/14 03:06:58;;;;;;;;;;;0.30;90.30;;;;;;5083306;28;19912;-79
2022/03/14 03:09:26;;;;;;;;;;;-2.10;89.10;;;;;;5101887;28;19994;-79
2022/03/14 03:11:53;;;;;;;;;;;-2.10;89.10;;;;;;5101576;28;19907;-79
2022/03/14 03:14:19;;;;;;;;;;;-2.10;89.30;;;;;;5083108;28;19915;-79
2022/03/14 03:16:44;;;;;;;;;;;-2.10;89.70;;;;;;5101338;28;19998;-79
2022/03/14 03:19:10;;;;;;;;;;;-2.10;90.00;;;;;;5101342;28;19922;-78
2022/03/14 03:21:38;;;;;;;;;;;-2.10;90.10;;;;;;5101283;28;19915;-79
2022/03/14 03:24:04;;;;;;;;;;;-2.10;90.10;;;;;;5101256;28;19908;-79
2022/03/14 03:26:30;;;;;;;;;;;-2.10;90.10;;;;;;5082800;28;19915;-79
2022/03/14 03:28:55;;;;;;;;;;;-0.80;90.30;;;;;;5083455;28;19907;-79
2022/03/14 03:31:21;;;;;;;;;;;0.00;90.50;;;;;;5082895;28;20559;-79
2022/03/14 03:33:48;;;;;;;;;;;-2.10;89.90;;;;;;5083465;28;20299;-79
2022/03/14 03:36:13;;;;;;;;;;;-2.20;90.10;;;;;;5101463;28;20000;-79
2022/03/14 03:38:39;;;;;;;;;;;-2.20;89.70;;;;;;5101723;28;19963;-79
2022/03/14 03:41:05;;;;;;;;;;;-2.30;90.00;;;;;;5102146;28;19923;-79
2022/03/14 03:43:30;;;;;;;;;;;-2.30;90.10;;;;;;5101602;28;20428;-79
2022/03/14 03:45:56;;;;;;;;;;;-0.90;90.50;;;;;;5101882;28;19931;-79
2022/03/14 03:48:22;;;;;;;;;;;-2.40;90.30;;;;;;5101768;28;19919;-79
2022/03/14 03:50:47;;;;;;;;;;;-1.70;90.60;;;;;;5101986;28;20212;-79
2022/03/14 03:53:13;;;;;;;;;;;-2.50;90.60;;;;;;5102360;28;19908;-79
2022/03/14 03:55:39;;;;;;;;;;;-2.50;90.70;;;;;;5101930;28;19907;-79
2022/03/14 03:58:05;;;;;;;;;;;-2.60;90.70;;;;;;5084090;28;20399;-79
2022/03/14 04:00:31;;;;;;;;;;;-0.70;91.30;;;;;;5102980;28;20008;-79
2022/03/14 04:02:57;;;;;;;;;;;-1.60;91.00;;;;;;5103948;28;20446;-79
2022/03/14 04:05:23;;;;;;;;;;;-2.70;90.90;;;;;;5109973;28;19965;-80
2022/03/14 04:07:49;;;;;;;;;;;-0.90;91.20;;;;;;5105095;28;19908;-79
2022/03/14 04:10:15;;;;;;;;;;;-2.80;90.80;;;;;;5101222;28;20136;-79
2022/03/14 04:12:41;;;;;;;;;;;-1.30;91.10;;;;;;5102206;28;19907;-79
2022/03/14 04:15:09;;;;;;;;;;;-2.70;90.60;;;;;;5083343;28;19998;-79
2022/03/14 04:17:38;;;;;;;;;;;-2.70;90.60;;;;;;5066667;28;19924;-79
2022/03/14 04:20:08;;;;;;;;;;;-2.70;90.70;;;;;;5100543;28;20019;-79
2022/03/14 04:22:37;;;;;;;;;;;-2.70;90.50;;;;;;5099636;28;20115;-80
2022/03/14 04:25:06;;;;;;;;;;;-2.80;90.60;;;;;;5082061;28;20332;-79
2022/03/14 04:27:31;;;;;;;;;;;-2.80;90.60;;;;;;5101265;28;19911;-79
2022/03/14 04:29:57;;;;;;;;;;;-2.80;90.70;;;;;;5100601;28;20360;-79
2022/03/14 04:32:25;;;;;;;;;;;-2.70;90.80;;;;;;5100784;28;19922;-79
2022/03/14 04:34:51;;;;;;;;;;;-2.50;90.70;;;;;;5101391;28;19911;-79
2022/03/14 04:37:18;;;;;;;;;;;-2.80;90.80;;;;;;5103547;28;20359;-80
2022/03/14 04:39:45;;;;;;;;;;;-1.80;91.00;;;;;;5085828;28;20143;-79
2022/03/14 04:42:10;;;;;;;;;;;-2.80;90.80;;;;;;5112910;28;19941;-79
2022/03/14 04:44:36;;;;;;;;;;;-2.90;90.80;;;;;;5116198;28;20359;-79
2022/03/14 04:47:03;;;;;;;;;;;-2.20;91.00;;;;;;5116925;28;20162;-78
2022/03/14 04:49:30;;;;;;;;;;;-2.90;91.00;;;;;;5113014;28;19908;-79
2022/03/14 04:51:55;;;;;;;;;;;-2.90;90.60;;;;;;5100323;28;19919;-79
2022/03/14 04:54:21;;;;;;;;;;;-2.90;90.60;;;;;;5100452;28;19908;-79
2022/03/14 04:56:47;;;;;;;;;;;-2.40;90.60;;;;;;5100107;28;19915;-79
2022/03/14 04:59:13;;;;;;;;;;;-2.80;90.50;;;;;;5100263;28;20282;-79
2022/03/14 05:01:39;;;;;;;;;;;-2.70;90.40;;;;;;5099652;28;19908;-79
2022/03/14 05:04:05;;;;;;;;;;;-2.80;90.20;;;;;;5099550;28;20011;-79
2022/03/14 05:06:32;;;;;;;;;;;-2.60;90.40;;;;;;5100113;28;20295;-79
2022/03/14 05:08:58;;;;;;;;;;;-2.80;90.30;;;;;;5099476;28;19908;-78
2022/03/14 05:11:24;;;;;;;;;;;-2.10;90.60;;;;;;5081661;28;19911;-79
2022/03/14 05:13:51;;;;;;;;;;;-2.80;90.40;;;;;;5099355;28;19908;-79
2022/03/14 05:16:16;;;;;;;;;;;-2.80;90.30;;;;;;5099388;28;20010;-79
2022/03/14 05:18:42;;;;;;;;;;;-2.80;90.10;;;;;;5099091;28;20412;-79
2022/03/14 05:21:07;;;;;;;;;;;-2.70;90.20;;;;;;5100015;28;19908;-79
2022/03/14 05:23:33;;;;;;;;;;;-2.80;90.30;;;;;;5099846;28;19965;-79
2022/03/14 05:25:59;;;;;;;;;;;-1.80;90.50;;;;;;5099848;28;20389;-79
2022/03/14 05:28:25;;;;;;;;;;;-2.70;90.30;;;;;;5099376;28;20554;-79
2022/03/14 05:30:50;;;;;;;;;;;-0.90;90.60;;;;;;5081487;28;19915;-79
2022/03/14 05:33:16;;;;;;;;;;;-2.80;90.00;;;;;;5099304;28;19916;-79
2022/03/14 05:35:42;;;;;;;;;;;-1.50;90.40;;;;;;5081204;28;19914;-79
2022/03/14 05:38:07;;;;;;;;;;;-2.70;90.00;;;;;;5099972;28;20458;-79
2022/03/14 05:40:33;;;;;;;;;;;-2.70;90.00;;;;;;5100604;28;19968;-79
2022/03/14 05:43:05;;;;;;;;;;;-2.60;90.10;;;;;;5100471;28;19943;-79
2022/03/14 05:45:31;;;;;;;;;;;-2.60;90.10;;;;;;5082303;28;19931;-79
2022/03/14 05:47:56;;;;;;;;;;;-2.60;89.60;;;;;;5100853;28;20119;-79
2022/03/14 05:50:24;;;;;;;;;;;-2.50;90.00;;;;;;5105130;28;19927;-79
2022/03/14 05:52:50;;;;;;;;;;;-2.50;89.40;;;;;;5085889;28;19996;-79
2022/03/14 05:55:15;;;;;;;;;;;-2.40;89.20;;;;;;5104876;28;19908;-79
2022/03/14 05:57:41;;;;;;;;;;;-2.40;88.60;;;;;;5104484;28;20290;-79
2022/03/14 06:00:08;;;;;;;;;;;-2.40;88.80;;;;;;5103376;28;19907;-79
2022/03/14 06:02:35;;;;;;;;;;;-2.30;88.60;;;;;;5102937;28;19920;-79
2022/03/14 06:05:00;;;;;;;;;;;-1.30;89.10;;;;;;5104256;28;20123;-80
2022/03/14 06:07:26;;;;;;;;;;;-1.20;88.60;;;;;;5104295;28;20328;-79
2022/03/14 06:09:51;;;;;;;;;;;-1.30;88.00;;;;;;5104638;28;19907;-79
2022/03/14 06:12:24;;;;;;;;;;;-2.10;87.50;;;;;;5104825;28;19908;-80
2022/03/14 06:14:51;;;;;;;;;;;-2.10;87.70;;;;;;5111130;28;19908;-79
2022/03/14 06:17:16;;;;;;;;;;;-2.00;87.10;;;;;;5104972;28;19959;-79
2022/03/14 06:19:42;;;;;;;;;;;-2.10;86.80;;;;;;5102701;28;20441;-79
2022/03/14 06:22:07;;;;;;;;;;;-0.80;87.60;;;;;;5102443;28;19908;-79
2022/03/14 06:24:33;;;;;;;;;;;-1.80;86.80;;;;;;5101952;28;19919;-79
2022/03/14 06:26:59;;;;;;;;;;;-1.70;86.30;;;;;;5101408;28;20410;-79
2022/03/14 06:29:24;;;;;;;;;;;-1.60;85.70;;;;;;5101790;28;20591;-79
2022/03/14 06:31:50;;;;;;;;;;;-1.20;85.20;;;;;;5102120;28;19990;-80
2022/03/14 06:34:15;;;;;;;;;;;-1.30;84.00;;;;;;5102533;28;20015;-78
2022/03/14 06:36:42;;;;;;;;;;;-1.20;82.90;;;;;;5103799;28;19914;-80
2022/03/14 06:39:07;;;;;;;;;;;-1.10;82.30;;;;;;5103738;28;19915;-79
2022/03/14 06:41:35;;;;;;;;;;;-0.90;81.70;;;;;;5103562;28;20003;-79
2022/03/14 06:44:00;;;;;;;;;;;-0.80;81.80;;;;;;5102146;28;20060;-79
2022/03/14 06:46:26;;;;;;;;;;;-0.80;82.10;;;;;;5102823;28;20507;-79
2022/03/14 06:48:52;;;;;;;;;;;-0.60;81.10;;;;;;5102229;28;19915;-79
2022/03/14 06:51:20;;;;;;;;;;;-0.60;81.00;;;;;;5083647;28;19907;-80
2022/03/14 06:53:46;;;;;;;;;;;-0.50;81.90;;;;;;5101837;28;20215;-79
2022/03/14 06:56:14;;;;;;;;;;;-0.40;81.60;;;;;;5102032;28;20333;-79
2022/03/14 06:58:39;;;;;;;;;;;-0.20;81.30;;;;;;5083695;28;20367;-79
2022/03/14 07:01:05;;;;;;;;;;;-0.10;79.80;;;;;;5101191;28;20236;-79
2022/03/14 07:03:30;;;;;;;;;;;0.00;78.50;;;;;;5082671;28;20310;-79
2022/03/14 07:05:56;;;;;;;;;;;0.10;77.70;;;;;;5101270;28;19922;-79
2022/03/14 07:08:21;;;;;;;;;;;0.30;77.40;;;;;;5101100;28;19907;-79
2022/03/14 07:10:47;;;;;;;;;;;0.70;76.60;;;;;;5101436;28;20290;-79
2022/03/14 07:13:13;;;;;;;;;;;0.50;76.00;;;;;;5101691;28;20192;-79
2022/03/14 07:15:39;;;;;;;;;;;0.50;77.90;;;;;;5102195;28;19907;-79
2022/03/14 07:18:05;;;;;;;;;;;1.40;78.10;;;;;;5101422;28;19916;-79
2022/03/14 07:20:30;;;;;;;;;;;0.90;77.60;;;;;;5102084;28;19942;-79
2022/03/14 07:23:00;;;;;;;;;;;1.00;77.70;;;;;;5101565;28;19915;-79
2022/03/14 07:25:27;;;;;;;;;;;1.20;77.60;;;;;;5082247;28;19942;-79
2022/03/14 07:27:53;;;;;;;;;;;1.30;77.40;;;;;;5102199;28;19908;-79
2022/03/14 07:30:19;;;;;;;;;;;1.40;77.90;;;;;;5102856;28;19918;-79
2022/03/14 07:32:46;;;;;;;;;;;1.40;76.60;;;;;;5085118;28;19999;-78
2022/03/14 07:35:12;;;;;;;;;;;1.50;77.00;;;;;;5105396;28;20442;-79
2022/03/14 07:37:38;;;;;;;;;;;1.70;75.60;;;;;;5104112;28;20212;-79
2022/03/14 07:40:04;;;;;;;;;;;1.70;75.60;;;;;;5103870;28;19930;-79
2022/03/14 07:42:29;;;;;;;;;;;1.80;74.60;;;;;;5085921;28;19958;-79
2022/03/14 07:44:55;;;;;;;;;;;2.00;73.90;;;;;;5106528;28;19951;-79
2022/03/14 07:47:21;;;;;;;;;;;3.10;73.40;;;;;;5109620;28;20477;-79
2022/03/14 07:49:46;;;;;;;;;;;2.30;72.60;;;;;;5109915;28;19949;-79
2022/03/14 07:52:12;;;;;;;;;;;2.30;70.90;;;;;;5109996;28;20188;-79
2022/03/14 07:54:38;;;;;;;;;;;2.40;70.20;;;;;;5110186;28;19958;-79
2022/03/14 07:57:04;;;;;;;;;;;2.60;69.50;;;;;;5090394;28;20398;-79
2022/03/14 07:59:29;;;;;;;;;;;2.80;67.90;;;;;;5109841;28;19919;-79
2022/03/14 08:01:55;;;;;;;;;;;2.90;66.50;;;;;;5108763;28;19920;-80
2022/03/14 08:04:21;;;;;;;;;;;3.00;65.30;;;;;;5110135;28;20181;-80
2022/03/14 08:06:46;;;;;;;;;;;3.20;63.40;;;;;;5109020;28;19966;-80
2022/03/14 08:09:12;;;;;;;;;;;3.30;62.40;;;;;;5107928;28;20395;-79
2022/03/14 08:11:38;;;;;;;;;;;3.30;61.20;;;;;;5101060;28;19914;-79
2022/03/14 08:14:04;;;;;;;;;;;3.50;61.10;;;;;;5101522;28;20011;-79
2022/03/14 08:16:30;;;;;;;;;;;3.70;60.40;;;;;;5101383;28;19947;-79
2022/03/14 08:18:55;;;;;;;;;;;3.80;59.50;;;;;;5102290;28;19966;-79
2022/03/14 08:21:21;;;;;;;;;;;4.00;57.80;;;;;;5102146;28;19961;-79
2022/03/14 08:23:47;;;;;;;;;;;4.20;56.30;;;;;;5106974;28;19912;-80
2022/03/14 08:26:12;;;;;;;;;;;4.30;56.70;;;;;;5090834;28;19911;-79
2022/03/14 08:28:39;;;;;;;;;;;4.40;55.30;;;;;;5102878;28;19907;-79
2022/03/14 08:31:05;;;;;;;;;;;4.60;54.00;;;;;;5102363;28;19955;-79
2022/03/14 08:33:31;;;;;;;;;;;4.70;53.40;;;;;;5102462;28;19927;-79
2022/03/14 08:36:00;;;;;;;;;;;4.80;53.20;;;;;;5102556;28;19964;-79
2022/03/14 08:38:26;;;;;;;;;;;4.90;52.80;;;;;;5107217;28;20378;-79
2022/03/14 08:40:52;;;;;;;;;;;5.10;54.60;;;;;;5107879;28;20227;-80
2022/03/14 08:43:18;;;;;;;;;;;5.30;54.40;;;;;;5103420;28;20260;-79
2022/03/14 08:45:44;;;;;;;;;;;5.40;52.80;;;;;;5101353;28;19914;-79
2022/03/14 08:48:11;;;;;;;;;;;5.50;51.50;;;;;;5101591;28;19927;-79
2022/03/14 08:50:38;;;;;;;;;;;5.70;51.30;;;;;;5083999;28;19908;-79
2022/03/14 08:53:05;;;;;;;;;;;5.70;51.30;;;;;;5101913;28;20223;-80
2022/03/14 08:55:31;;;;;;;;;;;6.00;50.70;;;;;;5101216;28;19911;-79
2022/03/14 08:57:56;;;;;;;;;;;6.10;49.40;;;;;;5082952;28;19916;-79
2022/03/14 09:00:24;;;;;;;;;;;6.30;48.80;;;;;;5101534;28;20112;-79
2022/03/14 09:02:50;;;;;;;;;;;6.50;49.10;;;;;;5101486;28;19972;-79
2022/03/14 09:05:17;;;;;;;;;;;6.50;48.90;;;;;;5101908;28;19968;-79
2022/03/14 09:07:43;;;;;;;;;;;6.60;48.20;;;;;;5101689;28;19912;-79
2022/03/14 09:10:09;;;;;;;;;;;6.60;47.60;;;;;;5101707;28;20487;-79
2022/03/14 09:12:37;;;;;;;;;;;6.70;47.60;;;;;;5101598;28;19911;-79
2022/03/14 09:15:05;;;;;;;;;;;7.00;47.40;;;;;;5104700;28;19935;-79
2022/03/14 09:17:32;;;;;;;;;;;7.10;45.70;;;;;;5111579;28;19919;-80
2022/03/14 09:20:00;;;;;;;;;;;7.20;45.60;;;;;;5111775;28;19911;-79
2022/03/14 09:22:26;;;;;;;;;;;7.30;44.40;;;;;;5092833;28;19979;-79
2022/03/14 09:24:55;;;;;;;;;;;7.50;44.70;;;;;;5096285;28;19951;-79
2022/03/14 09:27:21;;;;;;;;;;;7.80;43.20;;;;;;5114497;28;19947;-80
2022/03/14 09:29:48;;;;;;;;;;;7.90;42.70;;;;;;5113847;28;19908;-80
2022/03/14 09:32:15;;;;;;;;;;;8.10;42.60;;;;;;5108721;28;20157;-79
2022/03/14 09:34:41;;;;;;;;;;;8.10;41.60;;;;;;5106254;28;19935;-79
2022/03/14 09:37:07;;;;;;;;;;;8.40;42.00;;;;;;5105691;28;19946;-79
2022/03/14 09:39:34;;;;;;;;;;;8.50;41.50;;;;;;5105877;28;20156;-79
2022/03/14 09:42:01;;;;;;;;;;;8.70;41.30;;;;;;5105343;28;20402;-80
2022/03/14 09:44:27;;;;;;;;;;;8.70;41.00;;;;;;5105565;28;20400;-79
2022/03/14 09:46:54;;;;;;;;;;;8.90;41.50;;;;;;5087980;28;20180;-79
2022/03/14 09:49:21;;;;;;;;;;;9.00;41.00;;;;;;5106282;28;19919;-80
2022/03/14 09:51:47;;;;;;;;;;;9.20;40.70;;;;;;5088290;28;19999;-80
2022/03/14 09:54:13;;;;;;;;;;;9.40;40.30;;;;;;5106440;28;20003;-79
2022/03/14 09:56:42;;;;;;;;;;;9.10;40.20;;;;;;5107234;28;19912;-79
2022/03/14 09:59:14;;;;;;;;;;;9.20;40.20;;;;;;5106348;28;19916;-79
2022/03/14 10:01:40;;;;;;;;;;;9.30;39.20;;;;;;5105807;28;19986;-79
2022/03/14 10:04:08;;;;;;;;;;;9.40;39.70;;;;;;5105744;28;19915;-77
2022/03/14 10:06:34;;;;;;;;;;;9.50;38.50;;;;;;5087792;28;19918;-79
2022/03/14 10:08:59;;;;;;;;;;;9.70;37.70;;;;;;5085558;28;20310;-79
2022/03/14 10:11:25;;;;;;;;;;;9.80;37.60;;;;;;5087396;28;20440;-79
2022/03/14 10:13:52;;;;;;;;;;;10.00;38.00;;;;;;5105862;28;19923;-79
2022/03/14 10:16:19;;;;;;;;;;;10.10;38.20;;;;;;5107548;28;19935;-79
2022/03/14 10:18:52;;;;;;;;;;;8.70;36.10;;;;;;5089007;28;19936;-79
2022/03/14 10:21:30;;;;;;;;;;;9.90;37.20;;;;;;5107065;28;20112;-80
2022/03/14 10:23:58;;;;;;;;;;;10.00;36.60;;;;;;5109276;28;19942;-80
2022/03/14 10:26:25;;;;;;;;;;;10.30;36.30;;;;;;5109443;28;20064;-79
2022/03/14 10:28:54;;;;;;;;;;;10.50;35.90;;;;;;5108506;28;20499;-79
2022/03/14 10:31:34;;;;;;;;;;;10.80;36.10;;;;;;5104297;28;19907;-78
2022/03/14 10:34:11;;;;;;;;;;;11.00;36.40;;;;;;5104680;28;19908;-77
2022/03/14 10:36:42;;;;;;;;;;;11.20;35.20;;;;;;5108824;28;20135;-78
2022/03/14 10:39:14;;;;;;;;;;;11.30;33.70;;;;;;5104959;28;19923;-78
2022/03/14 10:41:40;;;;;;;;;;;11.50;34.00;;;;;;5083811;28;20478;-79
2022/03/14 10:44:06;;;;;;;;;;;11.60;32.90;;;;;;5102192;28;19920;-77
2022/03/14 10:46:32;;;;;;;;;;;11.80;33.30;;;;;;5101855;28;20101;-78
2022/03/14 10:48:58;;;;;;;;;;;11.80;32.90;;;;;;5101098;28;19911;-78
2022/03/14 10:51:23;;;;;;;;;;;12.10;32.80;;;;;;5101174;28;19977;-78
2022/03/14 10:53:49;;;;;;;;;;;12.50;33.80;;;;;;5101137;28;19919;-77
2022/03/14 10:56:15;;;;;;;;;;;12.50;32.10;;;;;;5101332;28;20237;-77
2022/03/14 10:58:43;;;;;;;;;;;12.70;31.80;;;;;;5100893;28;19992;-78
2022/03/14 11:01:09;;;;;;;;;;;12.80;31.60;;;;;;5100160;28;19908;-78
2022/03/14 11:03:36;;;;;;;;;;;13.00;30.10;;;;;;5100864;28;20451;-78
2022/03/14 11:06:02;;;;;;;;;;;13.10;30.60;;;;;;5100656;28;20003;-78
2022/03/14 11:08:32;;;;;;;;;;;13.40;32.00;;;;;;5100388;28;20010;-79
2022/03/14 11:10:59;;;;;;;;;;;13.50;30.00;;;;;;5100460;28;19908;-78
2022/03/14 11:13:25;;;;;;;;;;;13.80;30.20;;;;;;5101646;28;20376;-79
2022/03/14 11:15:50;;;;;;;;;;;13.80;29.60;;;;;;5088807;28;19911;-78
2022/03/14 11:18:19;;;;;;;;;;;14.20;29.40;;;;;;5086337;28;19927;-79
2022/03/14 11:20:45;;;;;;;;;;;14.50;29.20;;;;;;5087510;28;19916;-78
2022/03/14 11:23:13;;;;;;;;;;;14.60;28.50;;;;;;5105125;28;19915;-80
2022/03/14 11:25:38;;;;;;;;;;;14.50;28.50;;;;;;5099751;28;20096;-77
2022/03/14 11:28:06;;;;;;;;;;;15.20;28.70;;;;;;5080961;28;19907;-79
2022/03/14 11:30:35;;;;;;;;;;;13.90;27.90;;;;;;5080422;28;19912;-77
2022/03/14 11:33:01;;;;;;;;;;;15.00;28.30;;;;;;5099298;28;19942;-79
2022/03/14 11:35:27;;;;;;;;;;;15.10;28.10;;;;;;5099376;28;20528;-77
2022/03/14 11:37:55;;;;;;;;;;;15.20;27.80;;;;;;5099273;28;19923;-77
2022/03/14 11:40:21;;;;;;;;;;;15.20;27.80;;;;;;5099105;28;19955;-78
2022/03/14 11:42:47;;;;;;;;;;;15.40;27.60;;;;;;5099131;28;19962;-78
2022/03/14 11:45:13;;;;;;;;;;;15.70;27.20;;;;;;5098935;28;20017;-77
2022/03/14 11:47:39;;;;;;;;;;;15.10;26.70;;;;;;5098091;28;19928;-77
2022/03/14 11:50:05;;;;;;;;;;;13.10;26.50;;;;;;5099522;28;20094;-78
2022/03/14 11:52:41;;;;;;;;;;;15.20;27.00;;;;;;5098999;28;20314;-78
2022/03/14 11:55:17;;;;;;;;;;;15.60;27.20;;;;;;5098621;28;19916;-78
2022/03/14 11:57:47;;;;;;;;;;;15.90;25.60;;;;;;5098828;28;20069;-78
2022/03/14 12:00:21;;;;;;;;;;;16.10;25.90;;;;;;5079945;28;19991;-78
2022/03/14 12:02:51;;;;;;;;;;;16.00;25.30;;;;;;5098511;28;20130;-78
2022/03/14 12:05:31;;;;;;;;;;;15.90;25.90;;;;;;5080507;28;20204;-77
2022/03/14 12:08:01;;;;;;;;;;;16.20;26.10;;;;;;5098657;28;19908;-78
2022/03/14 12:10:26;;;;;;;;;;;16.30;25.20;;;;;;5099120;28;19941;-77
2022/03/14 12:12:53;;;;;;;;;;;16.20;26.10;;;;;;5080594;28;19916;-78
2022/03/14 12:15:37;;;;;;;;;;;16.20;26.10;;;;;;5098652;28;19969;-78
2022/03/14 12:18:35;;;;;;;;;;;16.40;25.80;;;;;;5098830;28;20045;-78
2022/03/14 12:21:04;;;;;;;;;;;16.70;25.00;;;;;;4995629;28;19924;-78
2022/03/14 12:23:30;;;;;;;;;;;16.80;25.80;;;;;;4995597;28;19913;-78
2022/03/14 12:25:59;;;;;;;;;;;16.90;25.50;;;;;;4995588;28;19909;-78
2022/03/14 12:28:29;;;;;;;;;;;16.60;25.10;;;;;;4995332;28;20257;-77
2022/03/14 12:31:14;;;;;;;;;;;16.80;25.30;;;;;;4978929;28;19939;-78
2022/03/14 12:33:41;;;;;;;;;;;17.20;25.30;;;;;;4995408;28;20055;-79
2022/03/14 12:36:16;;;;;;;;;;;17.40;24.60;;;;;;4995546;28;19909;-80
2022/03/14 12:38:41;;;;;;;;;;;17.70;25.20;;;;;;5007017;28;20127;-76
2022/03/14 12:41:21;;;;;;;;;;;17.80;24.40;;;;;;5012072;28;19931;-79
2022/03/14 12:43:47;;;;;;;;;;;17.90;24.20;;;;;;5003939;28;20415;-80
2022/03/14 12:46:12;;;;;;;;;;;17.90;24.60;;;;;;4996332;28;20025;-80
2022/03/14 12:48:49;;;;;;;;;;;18.00;24.80;;;;;;4995361;28;20086;-77
2022/03/14 12:51:23;;;;;;;;;;;18.20;23.80;;;;;;4994973;28;19925;-80
2022/03/14 12:53:50;;;;;;;;;;;18.40;23.70;;;;;;4995142;28;19917;-78
2022/03/14 12:56:17;;;;;;;;;;;18.70;23.60;;;;;;5026235;28;19918;-80
2022/03/14 12:58:53;;;;;;;;;;;18.80;23.50;;;;;;5100322;28;19916;-80
2022/03/14 13:01:19;;;;;;;;;;;18.90;23.20;;;;;;5083828;28;20322;-80
2022/03/14 13:03:46;;;;;;;;;;;19.10;24.00;;;;;;5102249;28;19911;-79
2022/03/14 13:06:11;;;;;;;;;;;19.00;22.30;;;;;;5083582;28;19912;-80
2022/03/14 13:08:43;;;;;;;;;;;19.20;22.50;;;;;;5102697;28;20344;-80
2022/03/14 13:11:09;;;;;;;;;;;19.40;22.90;;;;;;5102081;28;19918;-80
2022/03/14 13:13:36;;;;;;;;;;;18.80;22.10;;;;;;5102240;28;19920;-80
2022/03/14 13:16:10;;;;;;;;;;;19.70;22.80;;;;;;5101978;28;20406;-80
2022/03/14 13:18:35;;;;;;;;;;;20.00;22.60;;;;;;5083287;28;19942;-80
2022/03/14 13:21:11;;;;;;;;;;;19.90;21.70;;;;;;5102084;28;20291;-80
2022/03/14 13:23:37;;;;;;;;;;;19.90;22.20;;;;;;5101834;28;20077;-80
2022/03/14 13:26:03;;;;;;;;;;;19.90;21.90;;;;;;5101607;28;19911;-80
2022/03/14 13:28:33;;;;;;;;;;;20.10;21.90;;;;;;5101753;28;20451;-79
2022/03/14 13:31:00;;;;;;;;;;;20.30;22.50;;;;;;5101632;28;19907;-79
2022/03/14 13:33:27;;;;;;;;;;;20.70;23.10;;;;;;5101567;28;19912;-79
2022/03/14 13:35:54;;;;;;;;;;;20.50;22.10;;;;;;5101408;28;19938;-80
2022/03/14 13:38:26;;;;;;;;;;;20.50;22.30;;;;;;5101307;28;19916;-79
2022/03/14 13:40:52;;;;;;;;;;;20.90;22.10;;;;;;5101527;28;19919;-80
2022/03/14 13:43:19;;;;;;;;;;;21.00;22.00;;;;;;5082538;28;19920;-79
2022/03/14 13:45:44;;;;;;;;;;;21.20;21.60;;;;;;5082519;28;19996;-80
2022/03/14 13:48:10;;;;;;;;;;;21.30;21.80;;;;;;5082379;28;20387;-80
2022/03/14 13:50:45;;;;;;;;;;;21.70;22.40;;;;;;5101297;28;20157;-78
2022/03/14 13:53:20;;;;;;;;;;;21.90;21.20;;;;;;5100798;28;20252;-78
2022/03/14 13:55:56;;;;;;;;;;;21.90;21.70;;;;;;5100935;28;19911;-78
2022/03/14 13:58:25;;;;;;;;;;;21.80;21.20;;;;;;5082520;28;19926;-78
2022/03/14 14:00:54;;;;;;;;;;;21.90;21.60;;;;;;5081852;28;19958;-78
2022/03/14 14:03:21;;;;;;;;;;;21.90;21.40;;;;;;5100986;28;19935;-78
2022/03/14 14:05:47;;;;;;;;;;;21.90;20.80;;;;;;5101116;28;19958;-78
2022/03/14 14:08:28;;;;;;;;;;;22.00;20.80;;;;;;5101249;28;19947;-79
2022/03/14 14:10:53;;;;;;;;;;;22.30;21.00;;;;;;5081371;28;20172;-77
2022/03/14 14:13:19;;;;;;;;;;;22.20;21.00;;;;;;5100720;28;19912;-77
2022/03/14 14:15:48;;;;;;;;;;;22.40;21.10;;;;;;5100702;28;19911;-79
2022/03/14 14:18:16;;;;;;;;;;;22.30;20.70;;;;;;5100560;28;19916;-78
2022/03/14 14:20:42;;;;;;;;;;;22.70;21.20;;;;;;5082436;28;19908;-78